createdAt,value
2022-08-20T00:01:07.298Z,11.55
2022-08-20T00:04:17.935Z,10.38
2022-08-20T00:07:28.187Z,9.43
2022-08-20T00:10:41.951Z,9.52
2022-08-20T00:13:55.396Z,8.45
2022-08-20T00:17:07.423Z,7.88
2022-08-20T00:20:18.806Z,8.27
2022-08-20T00:23:29.058Z,7.68
2022-08-20T00:26:51.944Z,8.27
2022-08-20T00:30:03.308Z,7.57
2022-08-20T00:33:18.211Z,8.02
2022-08-20T00:36:32.287Z,7.93
2022-08-20T00:39:43.746Z,7.40
2022-08-20T00:42:58.096Z,7.43
2022-08-20T00:46:11.436Z,7.47
2022-08-20T00:49:27.921Z,7.55
2022-08-20T00:52:38.499Z,6.90
2022-08-20T00:55:48.813Z,7.30
2022-08-20T00:58:58.882Z,6.43
2022-08-20T01:02:12.983Z,6.70
2022-08-20T01:05:28.654Z,6.50
2022-08-20T01:08:42.573Z,6.45
2022-08-20T01:11:53.198Z,5.95
2022-08-20T01:15:05.968Z,5.72
2022-08-20T01:18:19.770Z,5.65
2022-08-20T01:21:34.165Z,5.55
2022-08-20T01:24:45.055Z,5.45
2022-08-20T01:27:57.723Z,5.05
2022-08-20T01:31:12.385Z,5.65
2022-08-20T01:34:22.851Z,5.80
2022-08-20T01:37:33.122Z,5.07
2022-08-20T01:40:58.107Z,5.20
2022-08-20T01:44:16.017Z,4.88
2022-08-20T01:47:38.438Z,5.30
2022-08-20T01:50:56.686Z,4.90
2022-08-20T01:54:07.388Z,5.20
2022-08-20T01:57:21.359Z,4.68
2022-08-20T02:00:34.923Z,4.65
2022-08-20T02:03:45.149Z,5.20
2022-08-20T02:06:58.130Z,5.43
2022-08-20T02:10:12.817Z,4.35
2022-08-20T02:13:24.855Z,4.80
2022-08-20T02:16:39.564Z,4.90
2022-08-20T02:19:54.086Z,4.68
2022-08-20T02:23:06.044Z,5.00
2022-08-20T02:26:19.042Z,4.70
2022-08-20T02:29:29.743Z,4.20
2022-08-20T02:32:41.967Z,5.00
2022-08-20T02:35:56.443Z,4.85
2022-08-20T02:39:08.665Z,5.32
2022-08-20T02:42:18.650Z,4.57
2022-08-20T02:45:30.119Z,4.75
2022-08-20T02:48:42.057Z,4.90
2022-08-20T02:51:52.808Z,4.32
2022-08-20T02:55:03.461Z,4.60
2022-08-20T02:58:14.372Z,4.80
2022-08-20T03:01:24.743Z,5.30
2022-08-20T03:04:36.312Z,5.30
2022-08-20T03:07:48.881Z,6.18
2022-08-20T03:10:59.243Z,5.60
2022-08-20T03:14:09.508Z,5.55
2022-08-20T03:17:19.565Z,5.22
2022-08-20T03:20:31.835Z,6.85
2022-08-20T03:23:44.128Z,8.40
2022-08-20T03:26:54.668Z,8.07
2022-08-20T03:30:06.098Z,8.98
2022-08-20T03:33:17.238Z,8.85
2022-08-20T03:36:29.639Z,10.05
2022-08-20T03:39:40.122Z,9.52
2022-08-20T03:42:52.541Z,9.23
2022-08-20T03:46:02.795Z,9.82
2022-08-20T03:49:13.315Z,10.52
2022-08-20T03:52:25.328Z,11.10
2022-08-20T03:55:35.558Z,8.68
2022-08-20T03:58:46.383Z,9.90
2022-08-20T04:01:56.531Z,11.35
2022-08-20T04:05:07.931Z,10.07
2022-08-20T04:08:21.858Z,10.48
2022-08-20T04:11:33.579Z,10.93
2022-08-20T04:14:44.187Z,12.48
2022-08-20T04:17:54.604Z,12.43
2022-08-20T04:21:05.741Z,13.65
2022-08-20T04:24:22.654Z,11.88
2022-08-20T04:27:42.608Z,12.43
2022-08-20T04:30:53.431Z,11.73
2022-08-20T04:34:04.796Z,12.75
2022-08-20T04:37:16.932Z,12.10
2022-08-20T04:40:47.758Z,11.07
2022-08-20T04:43:58.264Z,10.05
2022-08-20T04:47:08.623Z,10.35
2022-08-20T04:50:21.265Z,10.50
2022-08-20T04:53:31.624Z,10.60
2022-08-20T04:56:43.269Z,9.48
2022-08-20T04:59:57.683Z,10.73
2022-08-20T05:03:09.709Z,9.82
2022-08-20T05:06:20.050Z,10.25
2022-08-20T05:09:32.441Z,9.35
2022-08-20T05:12:57.151Z,8.85
2022-08-20T05:16:08.317Z,9.57
2022-08-20T05:19:18.537Z,7.63
2022-08-20T05:22:31.052Z,8.18
2022-08-20T05:25:42.876Z,9.10
2022-08-20T05:28:58.476Z,9.73
2022-08-20T05:32:12.330Z,8.57
2022-08-20T05:35:22.791Z,10.18
2022-08-20T05:38:34.885Z,9.02
2022-08-20T05:41:45.355Z,10.35
2022-08-20T05:44:56.916Z,10.75
2022-08-20T05:48:07.835Z,10.00
2022-08-20T05:51:18.383Z,10.60
2022-08-20T05:54:28.836Z,10.07
2022-08-20T05:57:39.021Z,9.85
2022-08-20T06:00:51.978Z,10.32
2022-08-20T06:04:19.908Z,10.32
2022-08-20T06:07:30.327Z,9.52
2022-08-20T06:10:42.657Z,9.85
2022-08-20T06:13:53.474Z,9.52
2022-08-20T06:17:07.444Z,10.30
2022-08-20T06:20:18.010Z,9.13
2022-08-20T06:23:50.345Z,9.40
2022-08-20T06:27:00.901Z,8.55
2022-08-20T06:30:13.533Z,9.68
2022-08-20T06:33:25.400Z,9.40
2022-08-20T06:36:35.525Z,8.43
2022-08-20T06:39:46.060Z,8.48
2022-08-20T06:42:58.239Z,8.82
2022-08-20T06:46:08.780Z,8.65
2022-08-20T06:49:19.976Z,8.60
2022-08-20T06:52:52.425Z,9.23
2022-08-20T06:56:00.914Z,8.25
2022-08-20T06:59:11.080Z,8.50
2022-08-20T07:02:21.104Z,7.38
2022-08-20T07:05:43.073Z,7.80
2022-08-20T07:08:53.662Z,7.18
2022-08-20T07:12:04.932Z,7.18
2022-08-20T07:15:16.008Z,6.53
2022-08-20T07:18:28.237Z,6.57
2022-08-20T07:21:42.077Z,5.38
2022-08-20T07:24:53.055Z,5.32
2022-08-20T07:28:05.064Z,5.18
2022-08-20T07:31:34.935Z,4.38
2022-08-20T07:34:45.802Z,5.63
2022-08-20T07:37:59.919Z,4.03
2022-08-20T07:41:15.023Z,4.15
2022-08-20T07:44:29.180Z,4.57
2022-08-20T07:47:43.793Z,5.13
2022-08-20T07:50:55.338Z,3.63
2022-08-20T07:54:07.223Z,4.45
2022-08-20T07:57:18.764Z,2.80
2022-08-20T08:00:28.821Z,2.97
2022-08-20T08:03:49.123Z,2.60
2022-08-20T08:07:01.331Z,3.53
2022-08-20T08:10:18.308Z,2.60
2022-08-20T08:13:32.307Z,3.53
2022-08-20T08:16:45.618Z,3.25
2022-08-20T08:19:56.289Z,2.58
2022-08-20T08:23:07.185Z,2.85
2022-08-20T08:26:21.778Z,2.03
2022-08-20T08:29:31.861Z,2.40
2022-08-20T08:33:01.914Z,2.75
2022-08-20T08:36:14.507Z,2.42
2022-08-20T08:39:24.578Z,2.67
2022-08-20T08:42:45.947Z,2.42
2022-08-20T08:46:01.599Z,2.20
2022-08-20T08:49:17.350Z,2.63
2022-08-20T08:52:31.541Z,2.08
2022-08-20T08:55:42.221Z,2.58
2022-08-20T08:58:55.536Z,2.10
2022-08-20T09:02:07.686Z,1.75
2022-08-20T09:05:21.659Z,2.30
2022-08-20T09:08:38.595Z,1.25
2022-08-20T09:11:53.143Z,2.08
2022-08-20T09:15:05.684Z,1.80
2022-08-20T09:18:15.818Z,1.65
2022-08-20T09:21:26.004Z,1.65
2022-08-20T09:24:36.371Z,1.63
2022-08-20T09:27:46.720Z,1.52
2022-08-20T09:31:00.493Z,1.52
2022-08-20T09:34:11.022Z,1.92
2022-08-20T09:37:21.141Z,1.95
2022-08-20T09:40:31.469Z,1.73
2022-08-20T09:43:41.616Z,1.50
2022-08-20T09:46:53.265Z,1.70
2022-08-20T09:50:03.918Z,1.67
2022-08-20T09:53:15.047Z,2.00
2022-08-20T09:56:25.685Z,1.80
2022-08-20T09:59:37.437Z,2.08
2022-08-20T10:02:49.946Z,2.63
2022-08-20T10:06:00.811Z,1.95
2022-08-20T10:09:11.256Z,2.30
2022-08-20T10:12:21.818Z,1.65
2022-08-20T10:15:32.399Z,2.00
2022-08-20T10:18:44.267Z,1.80
2022-08-20T10:21:55.109Z,1.88
2022-08-20T10:25:06.114Z,2.10
2022-08-20T10:28:16.581Z,1.98
2022-08-20T10:31:26.636Z,2.05
2022-08-20T10:34:38.014Z,2.17
2022-08-20T10:37:48.216Z,1.48
2022-08-20T10:40:58.373Z,2.20
2022-08-20T10:44:08.852Z,2.10
2022-08-20T10:47:23.071Z,2.05
2022-08-20T10:50:35.094Z,2.08
2022-08-20T10:53:45.651Z,2.17
2022-08-20T10:56:56.335Z,2.03
2022-08-20T11:00:08.508Z,1.65
2022-08-20T11:03:19.305Z,2.30
2022-08-20T11:06:31.222Z,2.03
2022-08-20T11:09:41.758Z,2.10
2022-08-20T11:12:52.084Z,2.40
2022-08-20T11:16:02.521Z,7.45
2022-08-20T11:19:13.093Z,2.10
2022-08-20T11:22:25.984Z,2.08
2022-08-20T11:25:36.008Z,2.72
2022-08-20T11:28:46.250Z,2.03
2022-08-20T11:31:56.497Z,2.50
2022-08-20T11:35:38.439Z,2.20
2022-08-20T11:38:39.476Z,2.00
2022-08-20T11:41:55.386Z,1.73
2022-08-20T11:45:07.448Z,1.63
2022-08-20T11:48:18.359Z,2.10
2022-08-20T11:51:28.714Z,2.00
2022-08-20T11:54:44.395Z,1.63
2022-08-20T11:57:54.618Z,1.48
2022-08-20T12:01:10.586Z,2.30
2022-08-20T12:04:20.888Z,2.30
2022-08-20T12:07:32.148Z,1.63
2022-08-20T12:10:43.725Z,1.67
2022-08-20T12:13:54.159Z,1.98
2022-08-20T12:17:09.630Z,1.95
2022-08-20T12:20:20.229Z,1.75
2022-08-20T12:23:30.593Z,1.50
2022-08-20T12:26:42.262Z,1.70
2022-08-20T12:29:54.488Z,1.60
2022-08-20T12:33:04.883Z,1.98
2022-08-20T12:36:16.292Z,1.23
2022-08-20T12:39:26.709Z,2.28
2022-08-20T12:42:39.011Z,1.55
2022-08-20T12:45:49.208Z,1.75
2022-08-20T12:48:59.509Z,1.63
2022-08-20T12:52:10.904Z,1.02
2022-08-20T12:55:21.613Z,1.40
2022-08-20T12:58:33.524Z,1.25
2022-08-20T13:01:44.048Z,1.42
2022-08-20T13:04:55.140Z,1.98
2022-08-20T13:08:09.356Z,1.90
2022-08-20T13:11:19.673Z,1.63
2022-08-20T13:14:32.708Z,1.38
2022-08-20T13:17:43.802Z,1.38
2022-08-20T13:20:53.993Z,1.35
2022-08-20T13:24:04.557Z,1.15
2022-08-20T13:27:17.520Z,1.25
2022-08-20T13:30:29.151Z,1.65
2022-08-20T13:33:39.507Z,1.40
2022-08-20T13:36:49.385Z,1.52
2022-08-20T13:40:00.566Z,1.20
2022-08-20T13:43:12.039Z,1.30
2022-08-20T13:46:23.767Z,1.20
2022-08-20T13:49:33.966Z,2.17
2022-08-20T13:52:46.013Z,2.00
2022-08-20T13:55:56.810Z,1.33
2022-08-20T13:59:07.346Z,1.17
2022-08-20T14:02:24.753Z,1.35
2022-08-20T14:05:35.750Z,1.70
2022-08-20T14:08:46.472Z,1.52
2022-08-20T14:11:58.184Z,1.20
2022-08-20T14:15:10.063Z,1.90
2022-08-20T14:18:21.894Z,1.30
2022-08-20T14:21:32.450Z,2.60
2022-08-20T14:24:42.476Z,2.47
2022-08-20T14:27:53.422Z,1.20
2022-08-20T14:31:04.017Z,1.25
2022-08-20T14:34:15.829Z,0.95
2022-08-20T14:37:28.152Z,1.23
2022-08-20T14:40:38.462Z,1.45
2022-08-20T14:43:48.714Z,1.73
2022-08-20T14:47:11.346Z,1.08
2022-08-20T14:50:25.378Z,1.10
2022-08-20T14:53:40.369Z,1.70
2022-08-20T14:56:50.988Z,1.65
2022-08-20T15:00:03.119Z,1.35
2022-08-20T15:03:14.345Z,1.40
2022-08-20T15:06:25.986Z,2.10
2022-08-20T15:09:37.497Z,1.20
2022-08-20T15:12:48.389Z,1.33
2022-08-20T15:15:58.786Z,2.00
2022-08-20T15:19:08.764Z,1.23
2022-08-20T15:22:21.534Z,1.35
2022-08-20T15:25:36.390Z,1.65
2022-08-20T15:28:48.468Z,1.25
2022-08-20T15:31:58.739Z,1.55
2022-08-20T15:35:11.392Z,1.30
2022-08-20T15:38:23.014Z,1.42
2022-08-20T15:41:34.688Z,1.17
2022-08-20T15:44:46.236Z,1.10
2022-08-20T15:48:03.279Z,1.63
2022-08-20T15:51:23.108Z,2.63
2022-08-20T15:54:36.471Z,2.30
2022-08-20T15:57:55.908Z,2.05
2022-08-20T16:01:24.519Z,1.70
2022-08-20T16:05:00.466Z,2.05
2022-08-20T16:08:23.070Z,1.27
2022-08-20T16:11:44.444Z,1.13
2022-08-20T16:15:01.387Z,1.52
2022-08-20T16:18:17.959Z,1.38
2022-08-20T16:21:34.545Z,1.60
2022-08-20T16:24:44.863Z,1.20
2022-08-20T16:28:04.851Z,1.30
2022-08-20T16:31:20.125Z,1.48
2022-08-20T16:34:38.299Z,1.53
2022-08-20T16:37:57.342Z,1.00
2022-08-20T16:41:12.943Z,1.25
2022-08-20T16:44:32.832Z,1.02
2022-08-20T16:47:43.212Z,1.10
2022-08-20T16:50:58.739Z,0.80
2022-08-20T16:54:09.973Z,1.20
2022-08-20T16:57:19.991Z,1.40
2022-08-20T17:00:35.633Z,1.20
2022-08-20T17:03:54.858Z,1.75
2022-08-20T17:07:08.821Z,1.10
2022-08-20T17:10:24.584Z,1.65
2022-08-20T17:13:37.198Z,1.52
2022-08-20T17:16:51.702Z,1.25
2022-08-20T17:20:06.207Z,0.90
2022-08-20T17:23:18.938Z,1.27
2022-08-20T17:26:35.074Z,1.20
2022-08-20T17:29:52.354Z,1.98
2022-08-20T17:33:06.717Z,1.23
2022-08-20T17:36:21.122Z,2.03
2022-08-20T17:39:32.279Z,1.38
2022-08-20T17:42:52.132Z,1.35
2022-08-20T17:46:07.557Z,1.30
2022-08-20T17:49:33.834Z,1.73
2022-08-20T17:52:49.173Z,1.40
2022-08-20T17:56:03.622Z,1.50
2022-08-20T17:59:23.959Z,1.30
2022-08-20T18:02:44.318Z,1.52
2022-08-20T18:06:12.635Z,1.90
2022-08-20T18:09:29.942Z,1.48
2022-08-20T18:12:46.294Z,2.08
2022-08-20T18:15:58.645Z,2.10
2022-08-20T18:19:16.293Z,2.42
2022-08-20T18:22:31.518Z,1.83
2022-08-20T18:25:47.927Z,2.10
2022-08-20T18:29:03.831Z,1.48
2022-08-20T18:32:30.376Z,1.55
2022-08-20T18:35:45.464Z,1.35
2022-08-20T18:39:03.667Z,1.80
2022-08-20T18:42:25.822Z,1.90
2022-08-20T18:45:37.649Z,1.90
2022-08-20T18:48:54.155Z,1.77
2022-08-20T18:52:11.809Z,1.60
2022-08-20T18:55:33.374Z,1.65
2022-08-20T18:58:55.478Z,1.48
2022-08-20T19:02:17.589Z,1.48
2022-08-20T19:05:32.457Z,1.60
2022-08-20T19:08:48.792Z,4.03
2022-08-20T19:12:46.889Z,2.03
2022-08-20T19:16:05.941Z,2.10
2022-08-20T19:19:18.082Z,2.95
2022-08-20T19:22:29.226Z,2.53
2022-08-20T19:25:44.232Z,2.08
2022-08-20T19:28:58.906Z,1.95
2022-08-20T19:32:20.338Z,1.48
2022-08-20T19:35:31.486Z,1.75
2022-08-20T19:38:47.278Z,1.75
2022-08-20T19:42:04.523Z,1.60
2022-08-20T19:45:24.552Z,1.77
2022-08-20T19:48:49.805Z,1.90
2022-08-20T19:52:09.796Z,1.83
2022-08-20T19:55:24.424Z,1.70
2022-08-20T19:58:35.349Z,1.80
2022-08-20T20:01:58.753Z,2.10
2022-08-20T20:05:11.761Z,3.63
2022-08-20T20:08:24.122Z,2.63
2022-08-20T20:11:37.350Z,2.53
2022-08-20T20:14:48.845Z,1.67
2022-08-20T20:18:00.936Z,1.50
2022-08-20T20:21:16.807Z,1.88
2022-08-20T20:24:31.401Z,2.17
2022-08-20T20:27:42.175Z,1.77
2022-08-20T20:30:52.309Z,2.00
2022-08-20T20:34:08.671Z,2.10
2022-08-20T20:37:34.783Z,2.23
2022-08-20T20:41:02.691Z,2.05
2022-08-20T20:44:21.156Z,2.30
2022-08-20T20:47:36.011Z,2.63
2022-08-20T20:50:48.100Z,3.63
2022-08-20T20:54:03.965Z,2.72
2022-08-20T20:57:38.046Z,2.53
2022-08-20T21:00:49.538Z,2.00
2022-08-20T21:03:59.762Z,2.28
2022-08-20T21:07:12.348Z,1.92
2022-08-20T21:10:26.072Z,2.10
2022-08-20T21:13:36.740Z,1.98
2022-08-20T21:16:47.533Z,1.90
2022-08-20T21:20:00.848Z,2.17
2022-08-20T21:23:11.305Z,1.80
2022-08-20T21:26:22.942Z,2.47
2022-08-20T21:29:33.616Z,2.40
2022-08-20T21:32:44.275Z,5.30
2022-08-20T21:35:54.764Z,7.95
2022-08-20T21:39:05.339Z,7.60
2022-08-20T21:42:29.301Z,5.55
2022-08-20T21:45:40.023Z,6.65
2022-08-20T21:48:53.676Z,10.65
2022-08-20T21:52:04.352Z,8.43
2022-08-20T21:55:15.035Z,5.97
2022-08-20T21:58:26.752Z,6.13
2022-08-20T22:01:38.823Z,4.65
2022-08-20T22:04:49.405Z,3.90
2022-08-20T22:08:04.850Z,3.47
2022-08-20T22:11:15.246Z,3.08
2022-08-20T22:14:27.071Z,2.78
2022-08-20T22:17:37.513Z,2.85
2022-08-20T22:20:47.583Z,2.97
2022-08-20T22:24:00.147Z,3.17
2022-08-20T22:27:10.526Z,3.30
2022-08-20T22:30:22.307Z,4.00
2022-08-20T22:33:33.967Z,3.67
2022-08-20T22:36:44.684Z,3.53
2022-08-20T22:39:55.050Z,4.03
2022-08-20T22:43:05.660Z,3.88
2022-08-20T22:46:18.087Z,4.43
2022-08-20T22:49:31.887Z,3.70
2022-08-20T22:52:43.450Z,3.60
2022-08-20T22:55:54.540Z,3.55
2022-08-20T22:59:06.199Z,3.80
2022-08-20T23:02:20.356Z,11.82
2022-08-20T23:05:33.362Z,16.92
2022-08-20T23:08:44.980Z,11.20
2022-08-20T23:11:55.510Z,9.52
2022-08-20T23:15:07.897Z,7.40
2022-08-20T23:18:21.048Z,7.18
2022-08-20T23:21:31.083Z,5.55
2022-08-20T23:24:41.783Z,7.75
2022-08-20T23:27:54.698Z,7.40
2022-08-20T23:31:05.663Z,8.10
2022-08-20T23:34:17.388Z,9.85
2022-08-20T23:37:27.753Z,10.70
2022-08-20T23:40:38.384Z,9.60
2022-08-20T23:43:48.513Z,8.80
2022-08-20T23:47:08.116Z,8.13
2022-08-20T23:50:24.227Z,8.13
2022-08-20T23:53:34.865Z,7.30
2022-08-20T23:56:45.008Z,7.18
2022-08-20T23:59:55.426Z,7.07
